Terminal Aerodrome Forecast
Issued by NWS

Home | Current Version | Previous Version | Text Only | Print | Product List | Glossary Off
Versions: 1 2 3 4 5 6 7 8 9 10 11 12 13

253
FTUS43 KIWX 240534
TAFSBN
TAF
KSBN 240534Z 2406/2506 06005KT P6SM BKN025
     FM241100 08006KT 6SM BR OVC015
     FM241800 10007KT P6SM BKN025=

USA.gov is the U.S. government's official web portal to all federal, state and local government web resources and services.